sensor_id;sensor_type;location;lat;lon;timestamp;temperature;humidity
3086;DHT22;52812;48.960;9.108;2022-07-12T00:01:03;14.70;99.90
3086;DHT22;52812;48.960;9.108;2022-07-12T00:03:29;14.70;99.90
3086;DHT22;52812;48.960;9.108;2022-07-12T00:05:54;14.70;99.90
3086;DHT22;52812;48.960;9.108;2022-07-12T00:08:20;14.70;99.90
3086;DHT22;52812;48.960;9.108;2022-07-12T00:10:45;14.70;99.90
3086;DHT22;52812;48.960;9.108;2022-07-12T00:13:11;14.70;99.90
3086;DHT22;52812;48.960;9.108;2022-07-12T00:15:37;14.60;99.90
3086;DHT22;52812;48.960;9.108;2022-07-12T00:18:02;14.50;99.90
3086;DHT22;52812;48.960;9.108;2022-07-12T00:20:28;14.40;99.90
3086;DHT22;52812;48.960;9.108;2022-07-12T00:22:55;14.30;99.90
3086;DHT22;52812;48.960;9.108;2022-07-12T00:25:21;14.20;99.90
3086;DHT22;52812;48.960;9.108;2022-07-12T00:27:46;14.20;99.90
3086;DHT22;52812;48.960;9.108;2022-07-12T00:30:12;14.10;99.90
3086;DHT22;52812;48.960;9.108;2022-07-12T00:32:38;14.20;99.90
3086;DHT22;52812;48.960;9.108;2022-07-12T00:35:04;14.20;99.90
3086;DHT22;52812;48.960;9.108;2022-07-12T00:37:31;14.20;99.90
3086;DHT22;52812;48.960;9.108;2022-07-12T00:39:57;14.20;99.90
3086;DHT22;52812;48.960;9.108;2022-07-12T00:42:23;14.20;99.90
3086;DHT22;52812;48.960;9.108;2022-07-12T00:44:49;14.10;99.90
3086;DHT22;52812;48.960;9.108;2022-07-12T00:47:43;14.20;99.90
3086;DHT22;52812;48.960;9.108;2022-07-12T00:50:17;14.20;99.90
3086;DHT22;52812;48.960;9.108;2022-07-12T00:52:45;14.20;99.90
3086;DHT22;52812;48.960;9.108;2022-07-12T00:55:11;14.30;99.90
3086;DHT22;52812;48.960;9.108;2022-07-12T00:57:41;14.40;99.90
3086;DHT22;52812;48.960;9.108;2022-07-12T01:00:15;14.40;99.90
3086;DHT22;52812;48.960;9.108;2022-07-12T01:02:40;14.40;99.90
3086;DHT22;52812;48.960;9.108;2022-07-12T01:05:07;14.40;99.90
3086;DHT22;52812;48.960;9.108;2022-07-12T01:07:34;14.30;99.90
3086;DHT22;52812;48.960;9.108;2022-07-12T01:10:00;14.30;99.90
3086;DHT22;52812;48.960;9.108;2022-07-12T01:12:26;14.30;99.90
3086;DHT22;52812;48.960;9.108;2022-07-12T01:14:52;14.30;99.90
3086;DHT22;52812;48.960;9.108;2022-07-12T01:17:21;14.20;99.90
3086;DHT22;52812;48.960;9.108;2022-07-12T01:19:47;14.20;99.90
3086;DHT22;52812;48.960;9.108;2022-07-12T01:22:15;14.10;99.90
3086;DHT22;52812;48.960;9.108;2022-07-12T01:24:42;14.00;99.90
3086;DHT22;52812;48.960;9.108;2022-07-12T01:27:08;14.00;99.90
3086;DHT22;52812;48.960;9.108;2022-07-12T01:29:34;13.90;99.90
3086;DHT22;52812;48.960;9.108;2022-07-12T01:32:01;14.00;99.90
3086;DHT22;52812;48.960;9.108;2022-07-12T01:34:53;14.00;99.90
3086;DHT22;52812;48.960;9.108;2022-07-12T01:37:20;14.10;99.90
3086;DHT22;52812;48.960;9.108;2022-07-12T01:39:49;14.10;99.90
3086;DHT22;52812;48.960;9.108;2022-07-12T01:42:15;14.10;99.90
3086;DHT22;52812;48.960;9.108;2022-07-12T01:44:41;14.00;99.90
3086;DHT22;52812;48.960;9.108;2022-07-12T01:47:07;14.10;99.90
3086;DHT22;52812;48.960;9.108;2022-07-12T01:49:32;14.00;99.90
3086;DHT22;52812;48.960;9.108;2022-07-12T01:51:58;14.00;99.90
3086;DHT22;52812;48.960;9.108;2022-07-12T01:54:24;13.90;99.90
3086;DHT22;52812;48.960;9.108;2022-07-12T01:56:51;13.90;99.90
3086;DHT22;52812;48.960;9.108;2022-07-12T01:59:17;13.90;99.90
3086;DHT22;52812;48.960;9.108;2022-07-12T02:01:43;13.80;99.90
3086;DHT22;52812;48.960;9.108;2022-07-12T02:04:09;13.80;99.90
3086;DHT22;52812;48.960;9.108;2022-07-12T02:06:35;13.80;99.90
3086;DHT22;52812;48.960;9.108;2022-07-12T02:09:01;13.70;99.90
3086;DHT22;52812;48.960;9.108;2022-07-12T02:11:27;13.60;99.90
3086;DHT22;52812;48.960;9.108;2022-07-12T02:13:52;13.60;99.90
3086;DHT22;52812;48.960;9.108;2022-07-12T02:16:18;13.60;99.90
3086;DHT22;52812;48.960;9.108;2022-07-12T02:18:44;13.60;99.90
3086;DHT22;52812;48.960;9.108;2022-07-12T02:21:09;13.60;99.90
3086;DHT22;52812;48.960;9.108;2022-07-12T02:23:35;13.60;99.90
3086;DHT22;52812;48.960;9.108;2022-07-12T02:26:04;13.50;99.90
3086;DHT22;52812;48.960;9.108;2022-07-12T02:28:29;13.40;99.90
3086;DHT22;52812;48.960;9.108;2022-07-12T02:30:57;13.40;99.90
3086;DHT22;52812;48.960;9.108;2022-07-12T02:33:23;13.30;99.90
3086;DHT22;52812;48.960;9.108;2022-07-12T02:35:49;13.20;99.90
3086;DHT22;52812;48.960;9.108;2022-07-12T02:38:14;13.20;99.90
3086;DHT22;52812;48.960;9.108;2022-07-12T02:40:40;13.10;99.90
3086;DHT22;52812;48.960;9.108;2022-07-12T02:43:21;13.10;99.90
3086;DHT22;52812;48.960;9.108;2022-07-12T02:45:47;13.10;99.90
3086;DHT22;52812;48.960;9.108;2022-07-12T02:48:13;13.00;99.90
3086;DHT22;52812;48.960;9.108;2022-07-12T02:50:39;13.00;99.90
3086;DHT22;52812;48.960;9.108;2022-07-12T02:53:06;12.90;99.90
3086;DHT22;52812;48.960;9.108;2022-07-12T02:55:31;12.90;99.90
3086;DHT22;52812;48.960;9.108;2022-07-12T02:57:57;12.80;99.90
3086;DHT22;52812;48.960;9.108;2022-07-12T03:00:22;12.70;99.90
3086;DHT22;52812;48.960;9.108;2022-07-12T03:02:48;12.70;99.90
3086;DHT22;52812;48.960;9.108;2022-07-12T03:05:13;12.80;99.90
3086;DHT22;52812;48.960;9.108;2022-07-12T03:07:39;12.80;99.90
3086;DHT22;52812;48.960;9.108;2022-07-12T03:10:05;12.80;99.90
3086;DHT22;52812;48.960;9.108;2022-07-12T03:12:31;12.80;99.90
3086;DHT22;52812;48.960;9.108;2022-07-12T03:14:56;12.70;99.90
3086;DHT22;52812;48.960;9.108;2022-07-12T03:17:22;12.80;99.90
3086;DHT22;52812;48.960;9.108;2022-07-12T03:19:48;12.70;99.90
3086;DHT22;52812;48.960;9.108;2022-07-12T03:22:13;12.70;99.90
3086;DHT22;52812;48.960;9.108;2022-07-12T03:24:39;12.70;99.90
3086;DHT22;52812;48.960;9.108;2022-07-12T03:27:05;12.80;99.90
3086;DHT22;52812;48.960;9.108;2022-07-12T03:29:31;12.80;99.90
3086;DHT22;52812;48.960;9.108;2022-07-12T03:31:56;12.80;99.90
3086;DHT22;52812;48.960;9.108;2022-07-12T03:34:22;12.80;99.90
3086;DHT22;52812;48.960;9.108;2022-07-12T03:36:48;12.70;99.90
3086;DHT22;52812;48.960;9.108;2022-07-12T03:39:13;12.70;99.90
3086;DHT22;52812;48.960;9.108;2022-07-12T03:41:39;12.70;99.90
3086;DHT22;52812;48.960;9.108;2022-07-12T03:44:05;12.80;99.90
3086;DHT22;52812;48.960;9.108;2022-07-12T03:46:31;12.70;99.90
3086;DHT22;52812;48.960;9.108;2022-07-12T03:48:58;12.60;99.90
3086;DHT22;52812;48.960;9.108;2022-07-12T03:51:24;12.60;99.90
3086;DHT22;52812;48.960;9.108;2022-07-12T03:53:50;12.60;99.90
3086;DHT22;52812;48.960;9.108;2022-07-12T03:56:15;12.60;99.90
3086;DHT22;52812;48.960;9.108;2022-07-12T03:59:02;12.70;99.90
3086;DHT22;52812;48.960;9.108;2022-07-12T04:01:28;12.80;99.90
3086;DHT22;52812;48.960;9.108;2022-07-12T04:03:55;12.80;99.90
3086;DHT22;52812;48.960;9.108;2022-07-12T04:06:20;12.80;99.90
3086;DHT22;52812;48.960;9.108;2022-07-12T04:08:46;12.80;99.90
3086;DHT22;52812;48.960;9.108;2022-07-12T04:11:11;12.80;99.90
3086;DHT22;52812;48.960;9.108;2022-07-12T04:13:37;12.90;99.90
3086;DHT22;52812;48.960;9.108;2022-07-12T04:16:03;13.00;99.90
3086;DHT22;52812;48.960;9.108;2022-07-12T04:18:29;13.00;99.90
3086;DHT22;52812;48.960;9.108;2022-07-12T04:20:54;13.10;99.90
3086;DHT22;52812;48.960;9.108;2022-07-12T04:23:20;13.20;99.90
3086;DHT22;52812;48.960;9.108;2022-07-12T04:25:45;13.20;99.90
3086;DHT22;52812;48.960;9.108;2022-07-12T04:28:11;13.10;99.90
3086;DHT22;52812;48.960;9.108;2022-07-12T04:30:37;13.10;99.90
3086;DHT22;52812;48.960;9.108;2022-07-12T04:33:02;13.10;99.90
3086;DHT22;52812;48.960;9.108;2022-07-12T04:35:28;13.20;99.90
3086;DHT22;52812;48.960;9.108;2022-07-12T04:37:53;13.30;99.90
3086;DHT22;52812;48.960;9.108;2022-07-12T04:40:20;13.40;99.90
3086;DHT22;52812;48.960;9.108;2022-07-12T04:42:46;13.60;99.90
3086;DHT22;52812;48.960;9.108;2022-07-12T04:45:11;13.70;99.90
3086;DHT22;52812;48.960;9.108;2022-07-12T04:47:37;13.90;99.90
3086;DHT22;52812;48.960;9.108;2022-07-12T04:50:06;14.00;99.90
3086;DHT22;52812;48.960;9.108;2022-07-12T04:52:33;14.10;99.90
3086;DHT22;52812;48.960;9.108;2022-07-12T04:54:58;14.10;99.90
3086;DHT22;52812;48.960;9.108;2022-07-12T04:57:24;14.10;99.90
3086;DHT22;52812;48.960;9.108;2022-07-12T04:59:50;14.20;99.90
3086;DHT22;52812;48.960;9.108;2022-07-12T05:02:15;14.40;99.90
3086;DHT22;52812;48.960;9.108;2022-07-12T05:04:44;14.40;99.90
3086;DHT22;52812;48.960;9.108;2022-07-12T05:07:12;14.50;99.90
3086;DHT22;52812;48.960;9.108;2022-07-12T05:09:37;14.60;99.90
3086;DHT22;52812;48.960;9.108;2022-07-12T05:12:03;14.70;99.90
3086;DHT22;52812;48.960;9.108;2022-07-12T05:14:29;14.90;99.90
3086;DHT22;52812;48.960;9.108;2022-07-12T05:16:54;15.10;99.90
3086;DHT22;52812;48.960;9.108;2022-07-12T05:19:20;15.30;99.90
3086;DHT22;52812;48.960;9.108;2022-07-12T05:21:47;15.50;99.90
3086;DHT22;52812;48.960;9.108;2022-07-12T05:24:12;15.90;99.90
3086;DHT22;52812;48.960;9.108;2022-07-12T05:26:38;16.10;99.90
3086;DHT22;52812;48.960;9.108;2022-07-12T05:29:04;16.50;99.90
3086;DHT22;52812;48.960;9.108;2022-07-12T05:31:29;16.90;99.90
3086;DHT22;52812;48.960;9.108;2022-07-12T05:33:55;17.00;99.90
3086;DHT22;52812;48.960;9.108;2022-07-12T05:36:21;17.10;99.90
3086;DHT22;52812;48.960;9.108;2022-07-12T05:38:46;17.30;99.90
3086;DHT22;52812;48.960;9.108;2022-07-12T05:41:12;17.50;99.90
3086;DHT22;52812;48.960;9.108;2022-07-12T05:43:38;17.50;99.90
3086;DHT22;52812;48.960;9.108;2022-07-12T05:46:04;17.40;99.90
3086;DHT22;52812;48.960;9.108;2022-07-12T05:48:30;17.50;99.90
3086;DHT22;52812;48.960;9.108;2022-07-12T05:50:56;17.60;99.90
3086;DHT22;52812;48.960;9.108;2022-07-12T05:53:41;17.70;99.90
3086;DHT22;52812;48.960;9.108;2022-07-12T05:56:07;17.80;99.90
3086;DHT22;52812;48.960;9.108;2022-07-12T05:58:32;17.70;99.90
3086;DHT22;52812;48.960;9.108;2022-07-12T06:00:58;17.80;99.90
3086;DHT22;52812;48.960;9.108;2022-07-12T06:03:23;18.40;99.90
3086;DHT22;52812;48.960;9.108;2022-07-12T06:05:49;19.60;99.90
3086;DHT22;52812;48.960;9.108;2022-07-12T06:08:14;20.50;99.90
3086;DHT22;52812;48.960;9.108;2022-07-12T06:10:40;21.60;99.90
3086;DHT22;52812;48.960;9.108;2022-07-12T06:13:06;22.20;99.90
3086;DHT22;52812;48.960;9.108;2022-07-12T06:15:32;23.20;99.90
3086;DHT22;52812;48.960;9.108;2022-07-12T06:17:57;23.20;99.90
3086;DHT22;52812;48.960;9.108;2022-07-12T06:20:23;23.20;99.90
3086;DHT22;52812;48.960;9.108;2022-07-12T06:22:49;23.10;99.90
3086;DHT22;52812;48.960;9.108;2022-07-12T06:25:15;23.40;99.90
3086;DHT22;52812;48.960;9.108;2022-07-12T06:27:40;23.50;99.90
3086;DHT22;52812;48.960;9.108;2022-07-12T06:30:06;23.60;99.90
3086;DHT22;52812;48.960;9.108;2022-07-12T06:32:32;24.10;99.90
3086;DHT22;52812;48.960;9.108;2022-07-12T06:34:58;24.70;99.90
3086;DHT22;52812;48.960;9.108;2022-07-12T06:37:24;24.90;99.90
3086;DHT22;52812;48.960;9.108;2022-07-12T06:39:50;25.20;99.90
3086;DHT22;52812;48.960;9.108;2022-07-12T06:42:15;25.20;99.90
3086;DHT22;52812;48.960;9.108;2022-07-12T06:44:41;25.40;99.90
3086;DHT22;52812;48.960;9.108;2022-07-12T06:47:06;25.60;99.90
3086;DHT22;52812;48.960;9.108;2022-07-12T06:49:32;26.10;99.90
3086;DHT22;52812;48.960;9.108;2022-07-12T06:51:58;26.20;99.90
3086;DHT22;52812;48.960;9.108;2022-07-12T06:54:23;25.80;99.90
3086;DHT22;52812;48.960;9.108;2022-07-12T06:56:50;25.90;99.90
3086;DHT22;52812;48.960;9.108;2022-07-12T06:59:16;26.00;99.90
3086;DHT22;52812;48.960;9.108;2022-07-12T07:01:44;26.00;99.90
3086;DHT22;52812;48.960;9.108;2022-07-12T07:04:12;26.10;99.90
3086;DHT22;52812;48.960;9.108;2022-07-12T07:06:50;26.50;99.90
3086;DHT22;52812;48.960;9.108;2022-07-12T07:09:24;26.60;99.90
3086;DHT22;52812;48.960;9.108;2022-07-12T07:11:50;27.00;99.90
3086;DHT22;52812;48.960;9.108;2022-07-12T07:14:39;27.30;99.90
3086;DHT22;52812;48.960;9.108;2022-07-12T07:17:07;27.60;99.90
3086;DHT22;52812;48.960;9.108;2022-07-12T07:19:53;27.80;99.90
3086;DHT22;52812;48.960;9.108;2022-07-12T07:22:29;27.70;99.90
3086;DHT22;52812;48.960;9.108;2022-07-12T07:24:54;27.70;99.90
3086;DHT22;52812;48.960;9.108;2022-07-12T07:27:20;27.90;99.90
3086;DHT22;52812;48.960;9.108;2022-07-12T07:29:52;28.50;99.90
3086;DHT22;52812;48.960;9.108;2022-07-12T07:32:36;28.30;99.90
3086;DHT22;52812;48.960;9.108;2022-07-12T07:35:02;27.80;98.90
3086;DHT22;52812;48.960;9.108;2022-07-12T07:37:29;28.00;99.90
3086;DHT22;52812;48.960;9.108;2022-07-12T07:39:55;28.30;98.10
3086;DHT22;52812;48.960;9.108;2022-07-12T07:42:20;28.20;98.80
3086;DHT22;52812;48.960;9.108;2022-07-12T07:44:46;27.30;98.20
3086;DHT22;52812;48.960;9.108;2022-07-12T07:47:12;27.00;98.90
3086;DHT22;52812;48.960;9.108;2022-07-12T07:49:37;27.20;98.00
3086;DHT22;52812;48.960;9.108;2022-07-12T07:52:03;27.30;98.40
3086;DHT22;52812;48.960;9.108;2022-07-12T07:54:28;27.20;97.80
3086;DHT22;52812;48.960;9.108;2022-07-12T07:56:54;27.40;97.80
3086;DHT22;52812;48.960;9.108;2022-07-12T07:59:20;26.60;97.80
3086;DHT22;52812;48.960;9.108;2022-07-12T08:01:45;26.00;98.70
3086;DHT22;52812;48.960;9.108;2022-07-12T08:04:15;26.60;97.50
3086;DHT22;52812;48.960;9.108;2022-07-12T08:06:42;26.50;96.50
3086;DHT22;52812;48.960;9.108;2022-07-12T08:09:08;26.20;97.80
3086;DHT22;52812;48.960;9.108;2022-07-12T08:11:34;26.20;96.60
3086;DHT22;52812;48.960;9.108;2022-07-12T08:14:01;25.80;97.20
3086;DHT22;52812;48.960;9.108;2022-07-12T08:16:27;26.50;97.80
3086;DHT22;52812;48.960;9.108;2022-07-12T08:18:54;27.20;96.80
3086;DHT22;52812;48.960;9.108;2022-07-12T08:21:20;27.20;97.50
3086;DHT22;52812;48.960;9.108;2022-07-12T08:23:45;26.90;95.90
3086;DHT22;52812;48.960;9.108;2022-07-12T08:26:11;26.50;96.40
3086;DHT22;52812;48.960;9.108;2022-07-12T08:28:36;27.10;95.90
3086;DHT22;52812;48.960;9.108;2022-07-12T08:31:02;26.90;95.70
3086;DHT22;52812;48.960;9.108;2022-07-12T08:33:27;26.50;95.90
3086;DHT22;52812;48.960;9.108;2022-07-12T08:35:53;27.10;96.40
3086;DHT22;52812;48.960;9.108;2022-07-12T08:38:19;26.60;95.50
3086;DHT22;52812;48.960;9.108;2022-07-12T08:40:45;26.50;96.10
3086;DHT22;52812;48.960;9.108;2022-07-12T08:43:11;27.00;96.40
3086;DHT22;52812;48.960;9.108;2022-07-12T08:45:36;27.30;95.20
3086;DHT22;52812;48.960;9.108;2022-07-12T08:48:02;26.20;95.80
3086;DHT22;52812;48.960;9.108;2022-07-12T08:50:28;26.20;96.00
3086;DHT22;52812;48.960;9.108;2022-07-12T08:52:55;26.50;97.10
3086;DHT22;52812;48.960;9.108;2022-07-12T08:57:53;27.40;96.40
3086;DHT22;52812;48.960;9.108;2022-07-12T09:00:20;27.60;96.50
3086;DHT22;52812;48.960;9.108;2022-07-12T09:02:50;26.80;95.40
3086;DHT22;52812;48.960;9.108;2022-07-12T09:05:20;26.00;96.60
3086;DHT22;52812;48.960;9.108;2022-07-12T09:07:47;25.60;96.80
3086;DHT22;52812;48.960;9.108;2022-07-12T09:10:14;26.30;97.80
3086;DHT22;52812;48.960;9.108;2022-07-12T09:12:41;25.70;96.80
3086;DHT22;52812;48.960;9.108;2022-07-12T09:15:19;25.20;96.50
3086;DHT22;52812;48.960;9.108;2022-07-12T09:18:04;24.80;97.30
3086;DHT22;52812;48.960;9.108;2022-07-12T09:20:35;24.60;97.00
3086;DHT22;52812;48.960;9.108;2022-07-12T09:23:06;24.60;97.70
3086;DHT22;52812;48.960;9.108;2022-07-12T09:25:32;24.80;97.00
3086;DHT22;52812;48.960;9.108;2022-07-12T09:27:59;24.90;97.80
3086;DHT22;52812;48.960;9.108;2022-07-12T09:30:27;24.70;97.70
3086;DHT22;52812;48.960;9.108;2022-07-12T09:32:57;24.80;97.90
3086;DHT22;52812;48.960;9.108;2022-07-12T09:35:43;24.70;97.50
3086;DHT22;52812;48.960;9.108;2022-07-12T09:38:27;24.70;97.80
3086;DHT22;52812;48.960;9.108;2022-07-12T09:40:54;25.00;97.60
3086;DHT22;52812;48.960;9.108;2022-07-12T09:43:22;25.30;97.80
3086;DHT22;52812;48.960;9.108;2022-07-12T09:45:48;25.30;97.20
3086;DHT22;52812;48.960;9.108;2022-07-12T09:48:15;25.20;96.70
3086;DHT22;52812;48.960;9.108;2022-07-12T09:50:47;25.00;97.80
3086;DHT22;52812;48.960;9.108;2022-07-12T09:53:22;25.40;97.40
3086;DHT22;52812;48.960;9.108;2022-07-12T09:55:52;25.40;96.90
3086;DHT22;52812;48.960;9.108;2022-07-12T09:58:30;25.50;97.40
3086;DHT22;52812;48.960;9.108;2022-07-12T10:00:59;25.80;96.90
3086;DHT22;52812;48.960;9.108;2022-07-12T10:03:29;25.50;97.30
3086;DHT22;52812;48.960;9.108;2022-07-12T10:06:00;25.30;96.80
3086;DHT22;52812;48.960;9.108;2022-07-12T10:08:27;25.20;96.20
3086;DHT22;52812;48.960;9.108;2022-07-12T10:10:54;24.70;96.40
3086;DHT22;52812;48.960;9.108;2022-07-12T10:13:20;24.50;97.60
3086;DHT22;52812;48.960;9.108;2022-07-12T10:15:49;24.30;97.90
3086;DHT22;52812;48.960;9.108;2022-07-12T10:18:17;23.80;98.50
3086;DHT22;52812;48.960;9.108;2022-07-12T10:20:43;23.30;98.80
3086;DHT22;52812;48.960;9.108;2022-07-12T10:23:34;23.30;99.90
3086;DHT22;52812;48.960;9.108;2022-07-12T10:28:56;23.40;99.90
3086;DHT22;52812;48.960;9.108;2022-07-12T10:31:28;23.70;98.80
3086;DHT22;52812;48.960;9.108;2022-07-12T10:34:23;23.90;98.10
3086;DHT22;52812;48.960;9.108;2022-07-12T10:39:21;24.30;98.30
3086;DHT22;52812;48.960;9.108;2022-07-12T10:44:34;24.60;97.00
3086;DHT22;52812;48.960;9.108;2022-07-12T10:47:01;24.40;96.80
3086;DHT22;52812;48.960;9.108;2022-07-12T10:49:29;24.40;97.90
3086;DHT22;52812;48.960;9.108;2022-07-12T10:54:41;24.20;96.70
3086;DHT22;52812;48.960;9.108;2022-07-12T10:57:07;24.10;97.80
3086;DHT22;52812;48.960;9.108;2022-07-12T10:59:37;23.90;97.60
3086;DHT22;52812;48.960;9.108;2022-07-12T11:02:03;23.80;98.00
3086;DHT22;52812;48.960;9.108;2022-07-12T11:04:30;23.60;97.70
3086;DHT22;52812;48.960;9.108;2022-07-12T11:07:00;23.50;98.30
3086;DHT22;52812;48.960;9.108;2022-07-12T11:09:26;23.80;98.40
3086;DHT22;52812;48.960;9.108;2022-07-12T11:11:53;24.10;97.50
3086;DHT22;52812;48.960;9.108;2022-07-12T11:14:27;24.40;98.90
3086;DHT22;52812;48.960;9.108;2022-07-12T11:16:57;24.30;96.80
3086;DHT22;52812;48.960;9.108;2022-07-12T11:19:26;24.20;97.50
3086;DHT22;52812;48.960;9.108;2022-07-12T11:21:53;24.30;96.60
3086;DHT22;52812;48.960;9.108;2022-07-12T11:24:30;24.10;97.00
3086;DHT22;52812;48.960;9.108;2022-07-12T11:26:56;24.30;97.30
3086;DHT22;52812;48.960;9.108;2022-07-12T11:29:23;24.40;96.90
3086;DHT22;52812;48.960;9.108;2022-07-12T11:31:59;24.10;96.80
3086;DHT22;52812;48.960;9.108;2022-07-12T11:34:26;23.90;97.00
3086;DHT22;52812;48.960;9.108;2022-07-12T11:37:00;24.10;97.10
3086;DHT22;52812;48.960;9.108;2022-07-12T11:41:58;24.40;97.00
3086;DHT22;52812;48.960;9.108;2022-07-12T11:47:11;24.60;97.30
3086;DHT22;52812;48.960;9.108;2022-07-12T11:49:41;24.50;97.80
3086;DHT22;52812;48.960;9.108;2022-07-12T11:52:08;24.50;97.20
3086;DHT22;52812;48.960;9.108;2022-07-12T11:54:33;24.60;97.80
3086;DHT22;52812;48.960;9.108;2022-07-12T11:57:09;24.50;97.20
3086;DHT22;52812;48.960;9.108;2022-07-12T11:59:36;24.60;97.30
3086;DHT22;52812;48.960;9.108;2022-07-12T12:02:09;24.50;96.70
3086;DHT22;52812;48.960;9.108;2022-07-12T12:04:50;24.60;97.00
3086;DHT22;52812;48.960;9.108;2022-07-12T12:07:19;24.30;96.30
3086;DHT22;52812;48.960;9.108;2022-07-12T12:09:58;24.40;97.40
3086;DHT22;52812;48.960;9.108;2022-07-12T12:12:25;24.20;97.00
3086;DHT22;52812;48.960;9.108;2022-07-12T12:14:50;24.40;96.60
3086;DHT22;52812;48.960;9.108;2022-07-12T12:17:16;24.40;97.50
3086;DHT22;52812;48.960;9.108;2022-07-12T12:19:43;24.30;97.50
3086;DHT22;52812;48.960;9.108;2022-07-12T12:22:48;24.50;99.00
3086;DHT22;52812;48.960;9.108;2022-07-12T12:25:14;24.90;96.70
3086;DHT22;52812;48.960;9.108;2022-07-12T12:27:44;24.90;97.70
3086;DHT22;52812;48.960;9.108;2022-07-12T12:30:11;25.00;97.20
3086;DHT22;52812;48.960;9.108;2022-07-12T12:32:52;24.90;97.40
3086;DHT22;52812;48.960;9.108;2022-07-12T12:35:25;24.90;97.00
3086;DHT22;52812;48.960;9.108;2022-07-12T12:38:02;25.10;96.40
3086;DHT22;52812;48.960;9.108;2022-07-12T12:40:31;24.80;96.10
3086;DHT22;52812;48.960;9.108;2022-07-12T12:43:13;24.80;97.00
3086;DHT22;52812;48.960;9.108;2022-07-12T12:45:52;24.90;96.60
3086;DHT22;52812;48.960;9.108;2022-07-12T12:48:19;24.90;95.90
3086;DHT22;52812;48.960;9.108;2022-07-12T12:50:47;25.00;95.50
3086;DHT22;52812;48.960;9.108;2022-07-12T12:53:15;24.70;96.20
3086;DHT22;52812;48.960;9.108;2022-07-12T12:55:43;24.80;95.30
3086;DHT22;52812;48.960;9.108;2022-07-12T12:58:09;24.70;96.10
3086;DHT22;52812;48.960;9.108;2022-07-12T13:00:37;24.80;95.80
3086;DHT22;52812;48.960;9.108;2022-07-12T13:03:07;24.70;96.10
3086;DHT22;52812;48.960;9.108;2022-07-12T13:05:34;24.90;96.00
3086;DHT22;52812;48.960;9.108;2022-07-12T13:08:00;25.00;96.00
3086;DHT22;52812;48.960;9.108;2022-07-12T13:10:26;25.20;95.30
3086;DHT22;52812;48.960;9.108;2022-07-12T13:12:52;25.10;95.70
3086;DHT22;52812;48.960;9.108;2022-07-12T13:15:17;25.20;95.20
3086;DHT22;52812;48.960;9.108;2022-07-12T13:17:44;25.10;95.10
3086;DHT22;52812;48.960;9.108;2022-07-12T13:20:10;25.00;95.00
3086;DHT22;52812;48.960;9.108;2022-07-12T13:22:39;24.90;96.20
3086;DHT22;52812;48.960;9.108;2022-07-12T13:25:07;25.10;96.30
3086;DHT22;52812;48.960;9.108;2022-07-12T13:27:33;25.30;95.50
3086;DHT22;52812;48.960;9.108;2022-07-12T13:29:58;25.20;95.70
3086;DHT22;52812;48.960;9.108;2022-07-12T13:32:24;25.20;95.50
3086;DHT22;52812;48.960;9.108;2022-07-12T13:34:50;25.40;96.00
3086;DHT22;52812;48.960;9.108;2022-07-12T13:37:16;25.50;95.30
3086;DHT22;52812;48.960;9.108;2022-07-12T13:39:42;25.60;95.70
3086;DHT22;52812;48.960;9.108;2022-07-12T13:42:26;25.60;94.60
3086;DHT22;52812;48.960;9.108;2022-07-12T13:44:52;25.60;95.10
3086;DHT22;52812;48.960;9.108;2022-07-12T13:47:22;25.30;95.40
3086;DHT22;52812;48.960;9.108;2022-07-12T13:49:48;25.10;95.50
3086;DHT22;52812;48.960;9.108;2022-07-12T13:52:13;25.20;94.90
3086;DHT22;52812;48.960;9.108;2022-07-12T13:54:40;25.20;95.10
3086;DHT22;52812;48.960;9.108;2022-07-12T13:57:06;25.60;94.80
3086;DHT22;52812;48.960;9.108;2022-07-12T13:59:33;25.70;94.70
3086;DHT22;52812;48.960;9.108;2022-07-12T14:01:58;25.70;95.40
3086;DHT22;52812;48.960;9.108;2022-07-12T14:04:24;25.70;94.00
3086;DHT22;52812;48.960;9.108;2022-07-12T14:06:49;25.50;94.70
3086;DHT22;52812;48.960;9.108;2022-07-12T14:09:15;25.50;96.00
3086;DHT22;52812;48.960;9.108;2022-07-12T14:11:41;25.70;96.30
3086;DHT22;52812;48.960;9.108;2022-07-12T14:14:07;25.70;95.40
3086;DHT22;52812;48.960;9.108;2022-07-12T14:16:32;25.70;95.40
3086;DHT22;52812;48.960;9.108;2022-07-12T14:18:59;25.50;94.10
3086;DHT22;52812;48.960;9.108;2022-07-12T14:21:28;25.60;95.30
3086;DHT22;52812;48.960;9.108;2022-07-12T14:23:56;25.80;93.60
3086;DHT22;52812;48.960;9.108;2022-07-12T14:26:24;25.70;93.20
3086;DHT22;52812;48.960;9.108;2022-07-12T14:28:50;25.90;93.80
3086;DHT22;52812;48.960;9.108;2022-07-12T14:31:15;25.70;94.30
3086;DHT22;52812;48.960;9.108;2022-07-12T14:33:41;25.70;93.70
3086;DHT22;52812;48.960;9.108;2022-07-12T14:36:07;25.60;93.80
3086;DHT22;52812;48.960;9.108;2022-07-12T14:38:33;25.50;94.10
3086;DHT22;52812;48.960;9.108;2022-07-12T14:40:59;25.50;95.60
3086;DHT22;52812;48.960;9.108;2022-07-12T14:43:24;25.60;94.50
3086;DHT22;52812;48.960;9.108;2022-07-12T14:45:50;25.60;94.20
3086;DHT22;52812;48.960;9.108;2022-07-12T14:48:16;25.70;94.10
3086;DHT22;52812;48.960;9.108;2022-07-12T14:50:41;25.80;95.10
3086;DHT22;52812;48.960;9.108;2022-07-12T14:53:07;25.90;94.10
3086;DHT22;52812;48.960;9.108;2022-07-12T14:55:33;25.90;93.20
3086;DHT22;52812;48.960;9.108;2022-07-12T14:57:58;25.90;93.00
3086;DHT22;52812;48.960;9.108;2022-07-12T15:00:26;25.80;93.20
3086;DHT22;52812;48.960;9.108;2022-07-12T15:02:51;25.80;93.90
3086;DHT22;52812;48.960;9.108;2022-07-12T15:05:17;25.80;92.90
3086;DHT22;52812;48.960;9.108;2022-07-12T15:07:43;25.80;92.80
3086;DHT22;52812;48.960;9.108;2022-07-12T15:10:09;25.80;93.50
3086;DHT22;52812;48.960;9.108;2022-07-12T15:12:35;25.70;93.20
3086;DHT22;52812;48.960;9.108;2022-07-12T15:15:00;25.70;93.30
3086;DHT22;52812;48.960;9.108;2022-07-12T15:17:27;25.70;93.50
3086;DHT22;52812;48.960;9.108;2022-07-12T15:19:53;25.70;92.90
3086;DHT22;52812;48.960;9.108;2022-07-12T15:22:19;25.70;92.50
3086;DHT22;52812;48.960;9.108;2022-07-12T15:24:44;25.70;93.20
3086;DHT22;52812;48.960;9.108;2022-07-12T15:27:10;25.70;93.20
3086;DHT22;52812;48.960;9.108;2022-07-12T15:29:39;25.70;92.80
3086;DHT22;52812;48.960;9.108;2022-07-12T15:32:10;25.80;93.40
3086;DHT22;52812;48.960;9.108;2022-07-12T15:34:37;25.80;93.00
3086;DHT22;52812;48.960;9.108;2022-07-12T15:37:03;26.00;92.50
3086;DHT22;52812;48.960;9.108;2022-07-12T15:39:28;26.00;92.30
3086;DHT22;52812;48.960;9.108;2022-07-12T15:41:54;25.90;92.40
3086;DHT22;52812;48.960;9.108;2022-07-12T15:44:19;25.90;93.70
3086;DHT22;52812;48.960;9.108;2022-07-12T15:46:45;25.80;92.80
3086;DHT22;52812;48.960;9.108;2022-07-12T15:49:11;26.00;91.80
3086;DHT22;52812;48.960;9.108;2022-07-12T15:51:38;26.00;92.70
3086;DHT22;52812;48.960;9.108;2022-07-12T15:54:23;26.00;92.20
3086;DHT22;52812;48.960;9.108;2022-07-12T15:56:49;26.10;91.90
3086;DHT22;52812;48.960;9.108;2022-07-12T15:59:15;26.00;91.30
3086;DHT22;52812;48.960;9.108;2022-07-12T16:01:41;25.90;91.30
3086;DHT22;52812;48.960;9.108;2022-07-12T16:04:07;26.00;91.90
3086;DHT22;52812;48.960;9.108;2022-07-12T16:06:33;25.80;91.60